sensor_id;sensor_type;location;lat;lon;timestamp;P1;durP1;ratioP1;P2;durP2;ratioP2
12480;SDS011;6305;48.398;11.762;2023-07-22T00:02:10;3.83;;;2.85;;
12480;SDS011;6305;48.398;11.762;2023-07-22T00:04:37;3.75;;;2.47;;
12480;SDS011;6305;48.398;11.762;2023-07-22T00:07:04;3.17;;;2.50;;
12480;SDS011;6305;48.398;11.762;2023-07-22T00:09:33;4.05;;;2.83;;
12480;SDS011;6305;48.398;11.762;2023-07-22T00:12:00;5.55;;;2.95;;
12480;SDS011;6305;48.398;11.762;2023-07-22T00:14:27;4.72;;;2.97;;
12480;SDS011;6305;48.398;11.762;2023-07-22T00:16:54;3.97;;;2.90;;
12480;SDS011;6305;48.398;11.762;2023-07-22T00:19:21;4.80;;;3.00;;
12480;SDS011;6305;48.398;11.762;2023-07-22T00:21:48;3.20;;;2.83;;
12480;SDS011;6305;48.398;11.762;2023-07-22T00:24:17;4.90;;;2.80;;
12480;SDS011;6305;48.398;11.762;2023-07-22T00:26:45;3.88;;;3.08;;
12480;SDS011;6305;48.398;11.762;2023-07-22T00:29:13;4.32;;;2.60;;
12480;SDS011;6305;48.398;11.762;2023-07-22T00:31:40;4.20;;;2.97;;
12480;SDS011;6305;48.398;11.762;2023-07-22T00:34:07;4.88;;;2.95;;
12480;SDS011;6305;48.398;11.762;2023-07-22T00:36:34;5.70;;;3.30;;
12480;SDS011;6305;48.398;11.762;2023-07-22T00:39:03;5.05;;;3.05;;
12480;SDS011;6305;48.398;11.762;2023-07-22T00:41:30;3.45;;;2.50;;
12480;SDS011;6305;48.398;11.762;2023-07-22T00:43:59;3.85;;;2.63;;
12480;SDS011;6305;48.398;11.762;2023-07-22T00:46:26;3.28;;;2.85;;
12480;SDS011;6305;48.398;11.762;2023-07-22T00:48:53;5.07;;;2.75;;
12480;SDS011;6305;48.398;11.762;2023-07-22T00:51:20;3.35;;;2.67;;
12480;SDS011;6305;48.398;11.762;2023-07-22T00:53:47;3.95;;;3.15;;
12480;SDS011;6305;48.398;11.762;2023-07-22T00:56:14;4.43;;;3.30;;
12480;SDS011;6305;48.398;11.762;2023-07-22T00:58:41;4.28;;;2.97;;
12480;SDS011;6305;48.398;11.762;2023-07-22T01:01:12;4.72;;;3.05;;
12480;SDS011;6305;48.398;11.762;2023-07-22T01:03:39;4.97;;;3.08;;
12480;SDS011;6305;48.398;11.762;2023-07-22T01:06:06;4.40;;;3.13;;
12480;SDS011;6305;48.398;11.762;2023-07-22T01:08:33;5.15;;;3.50;;
12480;SDS011;6305;48.398;11.762;2023-07-22T01:11:00;4.88;;;3.67;;
12480;SDS011;6305;48.398;11.762;2023-07-22T01:13:29;5.57;;;3.15;;
12480;SDS011;6305;48.398;11.762;2023-07-22T01:15:56;3.92;;;3.30;;
12480;SDS011;6305;48.398;11.762;2023-07-22T01:18:24;4.15;;;3.13;;
12480;SDS011;6305;48.398;11.762;2023-07-22T01:20:52;3.33;;;2.88;;
12480;SDS011;6305;48.398;11.762;2023-07-22T01:23:20;5.30;;;3.33;;
12480;SDS011;6305;48.398;11.762;2023-07-22T01:25:47;5.05;;;3.40;;
12480;SDS011;6305;48.398;11.762;2023-07-22T01:28:14;6.28;;;3.45;;
12480;SDS011;6305;48.398;11.762;2023-07-22T01:30:41;3.63;;;3.20;;
12480;SDS011;6305;48.398;11.762;2023-07-22T01:33:08;5.00;;;3.08;;
12480;SDS011;6305;48.398;11.762;2023-07-22T01:35:35;5.55;;;3.78;;
12480;SDS011;6305;48.398;11.762;2023-07-22T01:38:02;6.82;;;3.53;;
12480;SDS011;6305;48.398;11.762;2023-07-22T01:40:31;4.45;;;3.58;;
12480;SDS011;6305;48.398;11.762;2023-07-22T01:42:58;6.35;;;3.95;;
12480;SDS011;6305;48.398;11.762;2023-07-22T01:45:25;5.00;;;3.47;;
12480;SDS011;6305;48.398;11.762;2023-07-22T01:47:53;5.10;;;4.00;;
12480;SDS011;6305;48.398;11.762;2023-07-22T01:50:20;5.85;;;3.80;;
12480;SDS011;6305;48.398;11.762;2023-07-22T01:52:47;5.97;;;3.85;;
12480;SDS011;6305;48.398;11.762;2023-07-22T01:55:14;7.05;;;3.90;;
12480;SDS011;6305;48.398;11.762;2023-07-22T01:57:43;7.18;;;4.03;;
12480;SDS011;6305;48.398;11.762;2023-07-22T02:00:10;8.07;;;4.63;;
12480;SDS011;6305;48.398;11.762;2023-07-22T02:02:41;7.15;;;4.15;;
12480;SDS011;6305;48.398;11.762;2023-07-22T02:05:11;5.53;;;4.35;;
12480;SDS011;6305;48.398;11.762;2023-07-22T02:07:40;9.27;;;5.10;;
12480;SDS011;6305;48.398;11.762;2023-07-22T02:10:07;6.93;;;4.38;;
12480;SDS011;6305;48.398;11.762;2023-07-22T02:12:35;11.18;;;5.40;;
12480;SDS011;6305;48.398;11.762;2023-07-22T02:15:04;7.63;;;5.00;;
12480;SDS011;6305;48.398;11.762;2023-07-22T02:17:33;6.15;;;4.90;;
12480;SDS011;6305;48.398;11.762;2023-07-22T02:20:00;6.47;;;4.50;;
12480;SDS011;6305;48.398;11.762;2023-07-22T02:22:27;7.43;;;4.43;;
12480;SDS011;6305;48.398;11.762;2023-07-22T02:24:54;7.60;;;4.78;;
12480;SDS011;6305;48.398;11.762;2023-07-22T02:27:21;8.52;;;5.50;;
12480;SDS011;6305;48.398;11.762;2023-07-22T02:29:49;7.93;;;5.00;;
12480;SDS011;6305;48.398;11.762;2023-07-22T02:32:18;10.77;;;5.63;;
12480;SDS011;6305;48.398;11.762;2023-07-22T02:34:45;6.10;;;4.78;;
12480;SDS011;6305;48.398;11.762;2023-07-22T02:37:12;10.02;;;5.50;;
12480;SDS011;6305;48.398;11.762;2023-07-22T02:39:39;9.70;;;5.93;;
12480;SDS011;6305;48.398;11.762;2023-07-22T02:42:06;7.93;;;6.35;;
12480;SDS011;6305;48.398;11.762;2023-07-22T02:44:33;11.48;;;6.57;;
12480;SDS011;6305;48.398;11.762;2023-07-22T02:47:00;8.55;;;5.82;;
12480;SDS011;6305;48.398;11.762;2023-07-22T02:49:28;9.10;;;6.43;;
12480;SDS011;6305;48.398;11.762;2023-07-22T02:51:55;8.07;;;5.65;;
12480;SDS011;6305;48.398;11.762;2023-07-22T02:54:22;10.68;;;5.80;;
12480;SDS011;6305;48.398;11.762;2023-07-22T02:56:49;8.98;;;6.03;;
12480;SDS011;6305;48.398;11.762;2023-07-22T02:59:16;8.70;;;6.05;;
12480;SDS011;6305;48.398;11.762;2023-07-22T03:01:43;8.93;;;6.45;;
12480;SDS011;6305;48.398;11.762;2023-07-22T03:04:10;10.15;;;6.72;;
12480;SDS011;6305;48.398;11.762;2023-07-22T03:06:40;9.05;;;6.45;;
12480;SDS011;6305;48.398;11.762;2023-07-22T03:09:10;8.95;;;6.35;;
12480;SDS011;6305;48.398;11.762;2023-07-22T03:11:37;9.18;;;6.72;;
12480;SDS011;6305;48.398;11.762;2023-07-22T03:14:04;10.73;;;6.68;;
12480;SDS011;6305;48.398;11.762;2023-07-22T03:16:31;9.60;;;7.35;;
12480;SDS011;6305;48.398;11.762;2023-07-22T03:18:58;10.30;;;7.40;;
12480;SDS011;6305;48.398;11.762;2023-07-22T03:21:25;10.13;;;6.85;;
12480;SDS011;6305;48.398;11.762;2023-07-22T03:23:53;12.18;;;7.75;;
12480;SDS011;6305;48.398;11.762;2023-07-22T03:26:20;12.82;;;7.68;;
12480;SDS011;6305;48.398;11.762;2023-07-22T03:28:47;10.93;;;7.22;;
12480;SDS011;6305;48.398;11.762;2023-07-22T03:31:14;13.93;;;8.40;;
12480;SDS011;6305;48.398;11.762;2023-07-22T03:33:43;12.30;;;7.72;;
12480;SDS011;6305;48.398;11.762;2023-07-22T03:36:11;13.73;;;8.07;;
12480;SDS011;6305;48.398;11.762;2023-07-22T03:38:39;12.13;;;7.95;;
12480;SDS011;6305;48.398;11.762;2023-07-22T03:41:07;12.20;;;8.13;;
12480;SDS011;6305;48.398;11.762;2023-07-22T03:43:34;11.55;;;7.00;;
12480;SDS011;6305;48.398;11.762;2023-07-22T03:46:01;11.95;;;7.95;;
12480;SDS011;6305;48.398;11.762;2023-07-22T03:48:28;10.82;;;7.93;;
12480;SDS011;6305;48.398;11.762;2023-07-22T03:50:55;11.18;;;7.07;;
12480;SDS011;6305;48.398;11.762;2023-07-22T03:53:22;13.75;;;8.07;;
12480;SDS011;6305;48.398;11.762;2023-07-22T03:55:49;12.90;;;8.30;;
12480;SDS011;6305;48.398;11.762;2023-07-22T03:58:17;10.75;;;7.60;;
12480;SDS011;6305;48.398;11.762;2023-07-22T04:00:47;11.48;;;7.90;;
12480;SDS011;6305;48.398;11.762;2023-07-22T04:03:15;14.70;;;7.95;;
12480;SDS011;6305;48.398;11.762;2023-07-22T04:05:42;13.88;;;8.43;;
12480;SDS011;6305;48.398;11.762;2023-07-22T04:08:09;14.55;;;8.60;;
12480;SDS011;6305;48.398;11.762;2023-07-22T04:10:36;11.25;;;7.28;;
12480;SDS011;6305;48.398;11.762;2023-07-22T04:13:03;14.13;;;8.20;;
12480;SDS011;6305;48.398;11.762;2023-07-22T04:15:31;12.23;;;7.88;;
12480;SDS011;6305;48.398;11.762;2023-07-22T04:17:59;11.57;;;7.68;;
12480;SDS011;6305;48.398;11.762;2023-07-22T04:20:26;11.02;;;7.65;;
12480;SDS011;6305;48.398;11.762;2023-07-22T04:22:53;12.65;;;7.25;;
12480;SDS011;6305;48.398;11.762;2023-07-22T04:25:20;13.18;;;7.88;;
12480;SDS011;6305;48.398;11.762;2023-07-22T04:27:47;12.77;;;7.75;;
12480;SDS011;6305;48.398;11.762;2023-07-22T04:30:14;10.63;;;8.00;;
12480;SDS011;6305;48.398;11.762;2023-07-22T04:32:48;11.30;;;7.80;;
12480;SDS011;6305;48.398;11.762;2023-07-22T04:35:15;11.80;;;7.68;;
12480;SDS011;6305;48.398;11.762;2023-07-22T04:37:43;8.43;;;6.55;;
12480;SDS011;6305;48.398;11.762;2023-07-22T04:40:10;8.15;;;6.28;;
12480;SDS011;6305;48.398;11.762;2023-07-22T04:42:45;7.03;;;5.85;;
12480;SDS011;6305;48.398;11.762;2023-07-22T04:45:12;9.00;;;5.93;;
12480;SDS011;6305;48.398;11.762;2023-07-22T04:47:39;5.80;;;5.13;;
12480;SDS011;6305;48.398;11.762;2023-07-22T04:50:11;7.07;;;4.50;;
12480;SDS011;6305;48.398;11.762;2023-07-22T04:52:38;7.53;;;5.00;;
12480;SDS011;6305;48.398;11.762;2023-07-22T04:55:06;6.00;;;4.70;;
12480;SDS011;6305;48.398;11.762;2023-07-22T04:57:34;6.95;;;4.78;;
12480;SDS011;6305;48.398;11.762;2023-07-22T05:00:01;5.43;;;4.82;;
12480;SDS011;6305;48.398;11.762;2023-07-22T05:02:36;5.35;;;4.43;;
12480;SDS011;6305;48.398;11.762;2023-07-22T05:05:04;5.45;;;4.45;;
12480;SDS011;6305;48.398;11.762;2023-07-22T05:07:33;5.55;;;4.35;;
12480;SDS011;6305;48.398;11.762;2023-07-22T05:10:00;6.40;;;4.57;;
12480;SDS011;6305;48.398;11.762;2023-07-22T05:12:27;6.18;;;4.60;;
12480;SDS011;6305;48.398;11.762;2023-07-22T05:14:54;5.97;;;4.53;;
12480;SDS011;6305;48.398;11.762;2023-07-22T05:17:22;8.48;;;4.88;;
12480;SDS011;6305;48.398;11.762;2023-07-22T05:19:54;7.90;;;4.93;;
12480;SDS011;6305;48.398;11.762;2023-07-22T05:22:21;5.88;;;3.80;;
12480;SDS011;6305;48.398;11.762;2023-07-22T05:24:49;5.43;;;4.50;;
12480;SDS011;6305;48.398;11.762;2023-07-22T05:27:16;5.50;;;4.32;;
12480;SDS011;6305;48.398;11.762;2023-07-22T05:29:44;5.35;;;3.92;;
12480;SDS011;6305;48.398;11.762;2023-07-22T05:32:11;5.57;;;4.30;;
12480;SDS011;6305;48.398;11.762;2023-07-22T05:34:38;5.20;;;4.22;;
12480;SDS011;6305;48.398;11.762;2023-07-22T05:37:05;5.15;;;3.90;;
12480;SDS011;6305;48.398;11.762;2023-07-22T05:39:32;5.28;;;4.25;;
12480;SDS011;6305;48.398;11.762;2023-07-22T05:42:00;4.45;;;3.90;;
12480;SDS011;6305;48.398;11.762;2023-07-22T05:44:27;6.55;;;3.92;;
12480;SDS011;6305;48.398;11.762;2023-07-22T05:46:55;6.70;;;4.45;;
12480;SDS011;6305;48.398;11.762;2023-07-22T05:49:22;5.00;;;4.50;;
12480;SDS011;6305;48.398;11.762;2023-07-22T05:51:49;6.07;;;3.80;;
12480;SDS011;6305;48.398;11.762;2023-07-22T05:54:16;4.85;;;3.85;;
12480;SDS011;6305;48.398;11.762;2023-07-22T05:56:44;5.43;;;3.78;;
12480;SDS011;6305;48.398;11.762;2023-07-22T05:59:12;4.88;;;3.88;;
12480;SDS011;6305;48.398;11.762;2023-07-22T06:01:39;6.78;;;4.68;;
12480;SDS011;6305;48.398;11.762;2023-07-22T06:04:06;4.90;;;3.65;;
12480;SDS011;6305;48.398;11.762;2023-07-22T06:06:34;4.97;;;3.83;;
12480;SDS011;6305;48.398;11.762;2023-07-22T06:09:02;6.68;;;4.15;;
12480;SDS011;6305;48.398;11.762;2023-07-22T06:11:30;5.13;;;4.22;;
12480;SDS011;6305;48.398;11.762;2023-07-22T06:13:57;4.07;;;3.65;;
12480;SDS011;6305;48.398;11.762;2023-07-22T06:16:25;6.43;;;4.10;;
12480;SDS011;6305;48.398;11.762;2023-07-22T06:18:55;4.47;;;3.40;;
12480;SDS011;6305;48.398;11.762;2023-07-22T06:21:22;7.32;;;3.88;;
12480;SDS011;6305;48.398;11.762;2023-07-22T06:23:49;4.45;;;3.55;;
12480;SDS011;6305;48.398;11.762;2023-07-22T06:26:16;4.07;;;3.40;;
12480;SDS011;6305;48.398;11.762;2023-07-22T06:28:43;4.13;;;3.30;;
12480;SDS011;6305;48.398;11.762;2023-07-22T06:31:12;4.07;;;3.35;;
12480;SDS011;6305;48.398;11.762;2023-07-22T06:33:40;3.97;;;3.10;;
12480;SDS011;6305;48.398;11.762;2023-07-22T06:36:09;3.70;;;2.75;;
12480;SDS011;6305;48.398;11.762;2023-07-22T06:38:37;3.78;;;3.40;;
12480;SDS011;6305;48.398;11.762;2023-07-22T06:41:04;5.20;;;3.35;;
12480;SDS011;6305;48.398;11.762;2023-07-22T06:43:31;4.40;;;3.13;;
12480;SDS011;6305;48.398;11.762;2023-07-22T06:45:58;6.43;;;3.30;;
12480;SDS011;6305;48.398;11.762;2023-07-22T06:48:26;3.90;;;3.08;;
12480;SDS011;6305;48.398;11.762;2023-07-22T06:50:54;4.40;;;2.40;;
12480;SDS011;6305;48.398;11.762;2023-07-22T06:53:22;3.25;;;2.88;;
12480;SDS011;6305;48.398;11.762;2023-07-22T06:55:49;2.97;;;2.50;;
12480;SDS011;6305;48.398;11.762;2023-07-22T06:58:16;3.40;;;2.95;;
12480;SDS011;6305;48.398;11.762;2023-07-22T07:00:43;4.57;;;2.83;;
12480;SDS011;6305;48.398;11.762;2023-07-22T07:03:10;3.47;;;2.85;;
12480;SDS011;6305;48.398;11.762;2023-07-22T07:05:38;2.75;;;2.47;;
12480;SDS011;6305;48.398;11.762;2023-07-22T07:08:08;3.88;;;2.58;;
12480;SDS011;6305;48.398;11.762;2023-07-22T07:10:41;3.15;;;2.42;;
12480;SDS011;6305;48.398;11.762;2023-07-22T07:13:08;3.00;;;2.20;;
12480;SDS011;6305;48.398;11.762;2023-07-22T07:15:35;2.95;;;2.30;;
12480;SDS011;6305;48.398;11.762;2023-07-22T07:18:02;3.03;;;1.90;;
12480;SDS011;6305;48.398;11.762;2023-07-22T07:20:29;3.25;;;1.92;;
12480;SDS011;6305;48.398;11.762;2023-07-22T07:22:56;2.10;;;1.90;;
12480;SDS011;6305;48.398;11.762;2023-07-22T07:25:24;2.33;;;2.08;;
12480;SDS011;6305;48.398;11.762;2023-07-22T07:27:52;2.28;;;1.80;;
12480;SDS011;6305;48.398;11.762;2023-07-22T07:30:19;2.28;;;1.83;;
12480;SDS011;6305;48.398;11.762;2023-07-22T07:32:48;1.80;;;1.70;;
12480;SDS011;6305;48.398;11.762;2023-07-22T07:35:19;2.63;;;1.80;;
12480;SDS011;6305;48.398;11.762;2023-07-22T07:37:47;2.53;;;1.70;;
12480;SDS011;6305;48.398;11.762;2023-07-22T07:40:14;3.22;;;1.85;;
12480;SDS011;6305;48.398;11.762;2023-07-22T07:42:44;2.33;;;1.77;;
12480;SDS011;6305;48.398;11.762;2023-07-22T07:45:11;1.63;;;1.42;;
12480;SDS011;6305;48.398;11.762;2023-07-22T07:47:38;2.22;;;1.90;;
12480;SDS011;6305;48.398;11.762;2023-07-22T07:50:06;2.33;;;1.80;;
12480;SDS011;6305;48.398;11.762;2023-07-22T07:52:35;2.00;;;1.50;;
12480;SDS011;6305;48.398;11.762;2023-07-22T07:55:04;4.22;;;1.90;;
12480;SDS011;6305;48.398;11.762;2023-07-22T07:57:32;2.42;;;2.03;;
12480;SDS011;6305;48.398;11.762;2023-07-22T08:00:01;2.63;;;1.70;;
12480;SDS011;6305;48.398;11.762;2023-07-22T08:02:30;3.63;;;1.75;;
12480;SDS011;6305;48.398;11.762;2023-07-22T08:04:58;1.95;;;1.58;;
12480;SDS011;6305;48.398;11.762;2023-07-22T08:07:25;2.88;;;2.00;;
12480;SDS011;6305;48.398;11.762;2023-07-22T08:09:52;3.25;;;1.70;;
12480;SDS011;6305;48.398;11.762;2023-07-22T08:12:19;1.90;;;1.70;;
12480;SDS011;6305;48.398;11.762;2023-07-22T08:14:46;3.65;;;1.70;;
12480;SDS011;6305;48.398;11.762;2023-07-22T08:17:14;1.67;;;1.58;;
12480;SDS011;6305;48.398;11.762;2023-07-22T08:19:42;2.25;;;1.50;;
12480;SDS011;6305;48.398;11.762;2023-07-22T08:22:08;1.60;;;1.50;;
12480;SDS011;6305;48.398;11.762;2023-07-22T08:24:36;1.88;;;1.48;;
12480;SDS011;6305;48.398;11.762;2023-07-22T08:27:03;2.15;;;1.40;;
12480;SDS011;6305;48.398;11.762;2023-07-22T08:29:30;2.47;;;1.70;;
12480;SDS011;6305;48.398;11.762;2023-07-22T08:31:58;1.83;;;1.30;;
12480;SDS011;6305;48.398;11.762;2023-07-22T08:34:26;2.00;;;1.40;;
12480;SDS011;6305;48.398;11.762;2023-07-22T08:36:53;3.25;;;1.55;;
12480;SDS011;6305;48.398;11.762;2023-07-22T08:39:20;2.05;;;1.30;;
12480;SDS011;6305;48.398;11.762;2023-07-22T08:41:48;2.08;;;1.55;;
12480;SDS011;6305;48.398;11.762;2023-07-22T08:44:18;2.05;;;1.70;;
12480;SDS011;6305;48.398;11.762;2023-07-22T08:46:47;2.05;;;1.63;;
12480;SDS011;6305;48.398;11.762;2023-07-22T08:49:18;1.77;;;1.67;;
12480;SDS011;6305;48.398;11.762;2023-07-22T08:51:47;1.85;;;1.70;;
12480;SDS011;6305;48.398;11.762;2023-07-22T08:54:15;1.35;;;1.25;;
12480;SDS011;6305;48.398;11.762;2023-07-22T08:56:42;1.77;;;1.30;;
12480;SDS011;6305;48.398;11.762;2023-07-22T08:59:09;1.38;;;1.27;;
12480;SDS011;6305;48.398;11.762;2023-07-22T09:01:38;2.35;;;1.65;;
12480;SDS011;6305;48.398;11.762;2023-07-22T09:04:05;1.88;;;1.63;;
12480;SDS011;6305;48.398;11.762;2023-07-22T09:06:33;1.70;;;1.50;;
12480;SDS011;6305;48.398;11.762;2023-07-22T09:09:03;1.95;;;1.33;;
12480;SDS011;6305;48.398;11.762;2023-07-22T09:11:33;3.20;;;1.45;;
12480;SDS011;6305;48.398;11.762;2023-07-22T09:14:01;2.42;;;1.40;;
12480;SDS011;6305;48.398;11.762;2023-07-22T09:16:29;2.28;;;1.25;;
12480;SDS011;6305;48.398;11.762;2023-07-22T09:18:57;2.10;;;1.52;;
12480;SDS011;6305;48.398;11.762;2023-07-22T09:21:25;3.90;;;1.50;;
12480;SDS011;6305;48.398;11.762;2023-07-22T09:23:53;3.15;;;1.20;;
12480;SDS011;6305;48.398;11.762;2023-07-22T09:26:21;1.80;;;1.38;;
12480;SDS011;6305;48.398;11.762;2023-07-22T09:28:53;1.95;;;1.45;;
12480;SDS011;6305;48.398;11.762;2023-07-22T09:31:21;2.67;;;1.50;;
12480;SDS011;6305;48.398;11.762;2023-07-22T09:33:50;1.52;;;1.13;;
12480;SDS011;6305;48.398;11.762;2023-07-22T09:36:19;2.25;;;1.33;;
12480;SDS011;6305;48.398;11.762;2023-07-22T09:38:51;1.50;;;1.33;;
12480;SDS011;6305;48.398;11.762;2023-07-22T09:41:28;1.52;;;1.35;;
12480;SDS011;6305;48.398;11.762;2023-07-22T09:43:56;2.25;;;1.40;;
12480;SDS011;6305;48.398;11.762;2023-07-22T09:46:30;2.47;;;1.33;;
12480;SDS011;6305;48.398;11.762;2023-07-22T09:48:59;1.88;;;1.45;;
12480;SDS011;6305;48.398;11.762;2023-07-22T09:51:32;1.92;;;1.35;;
12480;SDS011;6305;48.398;11.762;2023-07-22T09:54:01;1.30;;;1.08;;
12480;SDS011;6305;48.398;11.762;2023-07-22T09:56:30;1.60;;;1.13;;
12480;SDS011;6305;48.398;11.762;2023-07-22T09:58:58;2.63;;;1.45;;
12480;SDS011;6305;48.398;11.762;2023-07-22T10:01:26;3.85;;;1.58;;
12480;SDS011;6305;48.398;11.762;2023-07-22T10:03:54;2.58;;;1.40;;
12480;SDS011;6305;48.398;11.762;2023-07-22T10:06:23;1.30;;;1.20;;
12480;SDS011;6305;48.398;11.762;2023-07-22T10:08:53;1.70;;;1.45;;
12480;SDS011;6305;48.398;11.762;2023-07-22T10:11:22;1.48;;;1.27;;
12480;SDS011;6305;48.398;11.762;2023-07-22T10:13:53;1.60;;;1.50;;
12480;SDS011;6305;48.398;11.762;2023-07-22T10:16:21;2.65;;;1.30;;
12480;SDS011;6305;48.398;11.762;2023-07-22T10:18:50;3.25;;;1.48;;
12480;SDS011;6305;48.398;11.762;2023-07-22T10:21:17;2.38;;;1.50;;
12480;SDS011;6305;48.398;11.762;2023-07-22T10:23:45;2.38;;;1.60;;
12480;SDS011;6305;48.398;11.762;2023-07-22T10:26:14;1.83;;;1.33;;
12480;SDS011;6305;48.398;11.762;2023-07-22T10:28:43;1.73;;;1.35;;
12480;SDS011;6305;48.398;11.762;2023-07-22T10:31:13;2.75;;;1.70;;
12480;SDS011;6305;48.398;11.762;2023-07-22T10:33:44;1.45;;;1.25;;
12480;SDS011;6305;48.398;11.762;2023-07-22T10:36:13;2.33;;;1.65;;
12480;SDS011;6305;48.398;11.762;2023-07-22T10:38:42;1.55;;;1.25;;
12480;SDS011;6305;48.398;11.762;2023-07-22T10:41:13;1.63;;;1.20;;
12480;SDS011;6305;48.398;11.762;2023-07-22T10:43:53;2.72;;;1.50;;
12480;SDS011;6305;48.398;11.762;2023-07-22T10:46:31;2.40;;;1.60;;
12480;SDS011;6305;48.398;11.762;2023-07-22T10:49:09;1.70;;;1.20;;
12480;SDS011;6305;48.398;11.762;2023-07-22T10:51:38;1.50;;;1.40;;
12480;SDS011;6305;48.398;11.762;2023-07-22T10:54:10;4.53;;;1.40;;
12480;SDS011;6305;48.398;11.762;2023-07-22T10:56:40;1.83;;;1.20;;
12480;SDS011;6305;48.398;11.762;2023-07-22T10:59:09;2.15;;;1.30;;
12480;SDS011;6305;48.398;11.762;2023-07-22T11:01:39;3.45;;;1.30;;
12480;SDS011;6305;48.398;11.762;2023-07-22T11:04:07;1.83;;;1.52;;
12480;SDS011;6305;48.398;11.762;2023-07-22T11:07:02;2.25;;;1.13;;
12480;SDS011;6305;48.398;11.762;2023-07-22T11:09:38;1.38;;;1.20;;
12480;SDS011;6305;48.398;11.762;2023-07-22T11:12:07;9.40;;;7.15;;
12480;SDS011;6305;48.398;11.762;2023-07-22T11:14:37;1.38;;;1.27;;
12480;SDS011;6305;48.398;11.762;2023-07-22T11:17:07;1.40;;;1.30;;
12480;SDS011;6305;48.398;11.762;2023-07-22T11:19:36;2.30;;;1.40;;
12480;SDS011;6305;48.398;11.762;2023-07-22T11:22:04;2.65;;;1.38;;
12480;SDS011;6305;48.398;11.762;2023-07-22T11:24:32;2.15;;;1.38;;
12480;SDS011;6305;48.398;11.762;2023-07-22T11:27:02;1.25;;;1.15;;
12480;SDS011;6305;48.398;11.762;2023-07-22T11:29:30;1.70;;;1.60;;
12480;SDS011;6305;48.398;11.762;2023-07-22T11:31:57;2.88;;;1.50;;
12480;SDS011;6305;48.398;11.762;2023-07-22T11:34:26;4.32;;;1.40;;
12480;SDS011;6305;48.398;11.762;2023-07-22T11:36:53;1.27;;;1.17;;
12480;SDS011;6305;48.398;11.762;2023-07-22T11:39:22;1.35;;;1.25;;
12480;SDS011;6305;48.398;11.762;2023-07-22T11:41:50;2.47;;;1.60;;
12480;SDS011;6305;48.398;11.762;2023-07-22T11:44:18;1.88;;;1.38;;
12480;SDS011;6305;48.398;11.762;2023-07-22T11:46:47;1.75;;;1.33;;
12480;SDS011;6305;48.398;11.762;2023-07-22T11:49:22;2.25;;;1.30;;
12480;SDS011;6305;48.398;11.762;2023-07-22T11:51:52;1.90;;;1.23;;
12480;SDS011;6305;48.398;11.762;2023-07-22T11:54:22;1.77;;;1.45;;
12480;SDS011;6305;48.398;11.762;2023-07-22T11:56:50;1.77;;;1.40;;
12480;SDS011;6305;48.398;11.762;2023-07-22T11:59:17;1.50;;;1.40;;
12480;SDS011;6305;48.398;11.762;2023-07-22T12:01:58;1.30;;;1.20;;
12480;SDS011;6305;48.398;11.762;2023-07-22T12:04:26;1.13;;;1.02;;
12480;SDS011;6305;48.398;11.762;2023-07-22T12:06:54;1.35;;;1.25;;
12480;SDS011;6305;48.398;11.762;2023-07-22T12:09:22;2.05;;;1.25;;
12480;SDS011;6305;48.398;11.762;2023-07-22T12:11:54;1.90;;;1.55;;
12480;SDS011;6305;48.398;11.762;2023-07-22T12:14:22;1.30;;;1.20;;
12480;SDS011;6305;48.398;11.762;2023-07-22T12:16:52;4.43;;;1.40;;
12480;SDS011;6305;48.398;11.762;2023-07-22T12:19:22;2.30;;;1.35;;
12480;SDS011;6305;48.398;11.762;2023-07-22T12:21:49;1.92;;;1.35;;
12480;SDS011;6305;48.398;11.762;2023-07-22T12:24:18;2.17;;;1.58;;
12480;SDS011;6305;48.398;11.762;2023-07-22T12:26:45;1.83;;;1.52;;
12480;SDS011;6305;48.398;11.762;2023-07-22T12:29:12;3.67;;;1.40;;
12480;SDS011;6305;48.398;11.762;2023-07-22T12:31:39;1.52;;;1.42;;
12480;SDS011;6305;48.398;11.762;2023-07-22T12:34:06;1.88;;;1.50;;
12480;SDS011;6305;48.398;11.762;2023-07-22T12:36:33;1.55;;;1.42;;
12480;SDS011;6305;48.398;11.762;2023-07-22T12:39:00;2.60;;;1.40;;
12480;SDS011;6305;48.398;11.762;2023-07-22T12:41:29;1.58;;;1.48;;
12480;SDS011;6305;48.398;11.762;2023-07-22T12:43:56;3.90;;;1.50;;
12480;SDS011;6305;48.398;11.762;2023-07-22T12:46:23;2.40;;;1.25;;
12480;SDS011;6305;48.398;11.762;2023-07-22T12:48:50;1.38;;;1.27;;
12480;SDS011;6305;48.398;11.762;2023-07-22T12:51:17;1.92;;;1.45;;
12480;SDS011;6305;48.398;11.762;2023-07-22T12:53:44;2.05;;;1.52;;
12480;SDS011;6305;48.398;11.762;2023-07-22T12:56:12;1.40;;;1.30;;
12480;SDS011;6305;48.398;11.762;2023-07-22T12:58:40;1.88;;;1.38;;
12480;SDS011;6305;48.398;11.762;2023-07-22T13:01:07;1.42;;;1.33;;
12480;SDS011;6305;48.398;11.762;2023-07-22T13:03:34;2.03;;;1.63;;
12480;SDS011;6305;48.398;11.762;2023-07-22T13:06:02;1.70;;;1.50;;
12480;SDS011;6305;48.398;11.762;2023-07-22T13:08:29;3.33;;;1.30;;
12480;SDS011;6305;48.398;11.762;2023-07-22T13:10:56;3.03;;;1.55;;
12480;SDS011;6305;48.398;11.762;2023-07-22T13:13:23;1.90;;;1.30;;
12480;SDS011;6305;48.398;11.762;2023-07-22T13:15:51;2.00;;;1.33;;
12480;SDS011;6305;48.398;11.762;2023-07-22T13:18:21;3.15;;;1.77;;
12480;SDS011;6305;48.398;11.762;2023-07-22T13:20:48;1.98;;;1.70;;
12480;SDS011;6305;48.398;11.762;2023-07-22T13:23:17;2.35;;;1.45;;
12480;SDS011;6305;48.398;11.762;2023-07-22T13:25:46;1.40;;;1.30;;
12480;SDS011;6305;48.398;11.762;2023-07-22T13:28:13;1.38;;;1.23;;
12480;SDS011;6305;48.398;11.762;2023-07-22T13:30:40;1.70;;;1.30;;
12480;SDS011;6305;48.398;11.762;2023-07-22T13:33:09;1.92;;;1.60;;
12480;SDS011;6305;48.398;11.762;2023-07-22T13:35:39;2.38;;;1.63;;
12480;SDS011;6305;48.398;11.762;2023-07-22T13:38:06;1.70;;;1.40;;
12480;SDS011;6305;48.398;11.762;2023-07-22T13:40:35;1.73;;;1.45;;
12480;SDS011;6305;48.398;11.762;2023-07-22T13:43:04;1.90;;;1.70;;
12480;SDS011;6305;48.398;11.762;2023-07-22T13:45:32;2.13;;;1.65;;
12480;SDS011;6305;48.398;11.762;2023-07-22T13:47:59;2.47;;;1.48;;
12480;SDS011;6305;48.398;11.762;2023-07-22T13:50:28;1.85;;;1.58;;
12480;SDS011;6305;48.398;11.762;2023-07-22T13:52:55;2.63;;;1.60;;
12480;SDS011;6305;48.398;11.762;2023-07-22T13:55:23;1.83;;;1.50;;
12480;SDS011;6305;48.398;11.762;2023-07-22T13:57:51;1.70;;;1.50;;
12480;SDS011;6305;48.398;11.762;2023-07-22T14:00:18;2.97;;;1.70;;
12480;SDS011;6305;48.398;11.762;2023-07-22T14:02:45;2.40;;;1.80;;
12480;SDS011;6305;48.398;11.762;2023-07-22T14:05:12;3.63;;;1.90;;
12480;SDS011;6305;48.398;11.762;2023-07-22T14:07:40;2.78;;;1.70;;
12480;SDS011;6305;48.398;11.762;2023-07-22T14:10:08;2.17;;;1.85;;
12480;SDS011;6305;48.398;11.762;2023-07-22T14:12:35;2.10;;;1.80;;
12480;SDS011;6305;48.398;11.762;2023-07-22T14:15:03;3.80;;;1.70;;
12480;SDS011;6305;48.398;11.762;2023-07-22T14:17:31;2.83;;;1.65;;
12480;SDS011;6305;48.398;11.762;2023-07-22T14:19:58;2.72;;;1.83;;
12480;SDS011;6305;48.398;11.762;2023-07-22T14:22:25;3.10;;;1.77;;
12480;SDS011;6305;48.398;11.762;2023-07-22T14:24:53;2.53;;;1.77;;
12480;SDS011;6305;48.398;11.762;2023-07-22T14:27:20;1.80;;;1.70;;
12480;SDS011;6305;48.398;11.762;2023-07-22T14:29:47;2.67;;;2.05;;
12480;SDS011;6305;48.398;11.762;2023-07-22T14:32:14;2.15;;;1.88;;
12480;SDS011;6305;48.398;11.762;2023-07-22T14:34:42;5.00;;;2.05;;
12480;SDS011;6305;48.398;11.762;2023-07-22T14:37:09;3.50;;;2.03;;
12480;SDS011;6305;48.398;11.762;2023-07-22T14:39:36;3.55;;;2.00;;
12480;SDS011;6305;48.398;11.762;2023-07-22T14:42:04;5.70;;;1.98;;
12480;SDS011;6305;48.398;11.762;2023-07-22T14:44:32;2.05;;;1.50;;
12480;SDS011;6305;48.398;11.762;2023-07-22T14:46:59;2.13;;;1.73;;
12480;SDS011;6305;48.398;11.762;2023-07-22T14:49:26;2.67;;;2.08;;
12480;SDS011;6305;48.398;11.762;2023-07-22T14:51:53;2.67;;;2.10;;